sensor_id;sensor_type;location;lat;lon;timestamp;P1;durP1;ratioP1;P2;durP2;ratioP2
3755;SDS011;1893;52.526;13.360;2022-10-31T00:01:56;45.30;;;29.50;;
3755;SDS011;1893;52.526;13.360;2022-10-31T00:04:21;45.03;;;31.77;;
3755;SDS011;1893;52.526;13.360;2022-10-31T00:06:47;46.43;;;28.33;;
3755;SDS011;1893;52.526;13.360;2022-10-31T00:09:13;46.53;;;28.70;;
3755;SDS011;1893;52.526;13.360;2022-10-31T00:11:38;46.07;;;29.50;;
3755;SDS011;1893;52.526;13.360;2022-10-31T00:14:04;43.17;;;27.70;;
3755;SDS011;1893;52.526;13.360;2022-10-31T00:16:30;47.00;;;30.00;;
3755;SDS011;1893;52.526;13.360;2022-10-31T00:18:56;35.73;;;27.20;;
3755;SDS011;1893;52.526;13.360;2022-10-31T00:21:26;45.93;;;29.03;;
3755;SDS011;1893;52.526;13.360;2022-10-31T00:23:52;45.20;;;28.50;;
3755;SDS011;1893;52.526;13.360;2022-10-31T00:26:18;39.20;;;27.63;;
3755;SDS011;1893;52.526;13.360;2022-10-31T00:28:44;42.10;;;28.53;;
3755;SDS011;1893;52.526;13.360;2022-10-31T00:31:10;41.50;;;27.03;;
3755;SDS011;1893;52.526;13.360;2022-10-31T00:33:37;40.10;;;28.03;;
3755;SDS011;1893;52.526;13.360;2022-10-31T00:36:05;44.53;;;27.63;;
3755;SDS011;1893;52.526;13.360;2022-10-31T00:38:32;40.77;;;28.63;;
3755;SDS011;1893;52.526;13.360;2022-10-31T00:40:58;44.20;;;27.93;;
3755;SDS011;1893;52.526;13.360;2022-10-31T00:43:23;41.43;;;29.73;;
3755;SDS011;1893;52.526;13.360;2022-10-31T00:45:49;36.57;;;26.03;;
3755;SDS011;1893;52.526;13.360;2022-10-31T00:48:14;45.90;;;27.60;;
3755;SDS011;1893;52.526;13.360;2022-10-31T00:50:40;40.37;;;25.77;;
3755;SDS011;1893;52.526;13.360;2022-10-31T00:53:06;43.10;;;28.10;;
3755;SDS011;1893;52.526;13.360;2022-10-31T00:55:32;46.47;;;28.97;;
3755;SDS011;1893;52.526;13.360;2022-10-31T00:57:57;45.03;;;29.20;;
3755;SDS011;1893;52.526;13.360;2022-10-31T01:00:23;45.43;;;27.77;;
3755;SDS011;1893;52.526;13.360;2022-10-31T01:02:49;37.03;;;27.93;;
3755;SDS011;1893;52.526;13.360;2022-10-31T01:05:14;42.73;;;26.43;;
3755;SDS011;1893;52.526;13.360;2022-10-31T01:07:40;36.23;;;26.17;;
3755;SDS011;1893;52.526;13.360;2022-10-31T01:10:06;40.43;;;25.53;;
3755;SDS011;1893;52.526;13.360;2022-10-31T01:12:39;36.90;;;24.87;;
3755;SDS011;1893;52.526;13.360;2022-10-31T01:15:10;41.10;;;26.73;;
3755;SDS011;1893;52.526;13.360;2022-10-31T01:17:37;32.90;;;25.70;;
3755;SDS011;1893;52.526;13.360;2022-10-31T01:20:04;34.90;;;25.03;;
3755;SDS011;1893;52.526;13.360;2022-10-31T01:22:30;38.30;;;25.27;;
3755;SDS011;1893;52.526;13.360;2022-10-31T01:24:56;36.50;;;25.17;;
3755;SDS011;1893;52.526;13.360;2022-10-31T01:27:21;34.33;;;24.20;;
3755;SDS011;1893;52.526;13.360;2022-10-31T01:29:47;35.87;;;24.20;;
3755;SDS011;1893;52.526;13.360;2022-10-31T01:32:12;36.37;;;24.10;;
3755;SDS011;1893;52.526;13.360;2022-10-31T01:34:38;40.07;;;24.87;;
3755;SDS011;1893;52.526;13.360;2022-10-31T01:37:04;29.57;;;24.40;;
3755;SDS011;1893;52.526;13.360;2022-10-31T01:39:29;40.00;;;25.37;;
3755;SDS011;1893;52.526;13.360;2022-10-31T01:41:54;35.70;;;24.87;;
3755;SDS011;1893;52.526;13.360;2022-10-31T01:49:24;32.80;;;25.27;;
3755;SDS011;1893;52.526;13.360;2022-10-31T01:51:57;28.40;;;22.70;;
3755;SDS011;1893;52.526;13.360;2022-10-31T01:54:29;33.23;;;24.80;;
3755;SDS011;1893;52.526;13.360;2022-10-31T01:56:58;33.00;;;22.73;;
3755;SDS011;1893;52.526;13.360;2022-10-31T01:59:26;39.17;;;25.27;;
3755;SDS011;1893;52.526;13.360;2022-10-31T02:01:55;32.03;;;23.77;;
3755;SDS011;1893;52.526;13.360;2022-10-31T02:04:20;36.50;;;24.17;;
3755;SDS011;1893;52.526;13.360;2022-10-31T02:06:51;38.47;;;22.90;;
3755;SDS011;1893;52.526;13.360;2022-10-31T02:09:23;32.13;;;22.13;;
3755;SDS011;1893;52.526;13.360;2022-10-31T02:11:51;41.30;;;24.90;;
3755;SDS011;1893;52.526;13.360;2022-10-31T02:14:18;35.87;;;23.67;;
3755;SDS011;1893;52.526;13.360;2022-10-31T02:16:45;37.30;;;24.10;;
3755;SDS011;1893;52.526;13.360;2022-10-31T02:19:12;35.43;;;20.87;;
3755;SDS011;1893;52.526;13.360;2022-10-31T02:22:20;31.63;;;21.07;;
3755;SDS011;1893;52.526;13.360;2022-10-31T02:25:08;35.03;;;22.93;;
3755;SDS011;1893;52.526;13.360;2022-10-31T02:33:26;33.27;;;22.23;;
3755;SDS011;1893;52.526;13.360;2022-10-31T02:43:54;39.50;;;22.47;;
3755;SDS011;1893;52.526;13.360;2022-10-31T02:49:33;33.37;;;20.83;;
3755;SDS011;1893;52.526;13.360;2022-10-31T02:52:32;27.77;;;20.27;;
3755;SDS011;1893;52.526;13.360;2022-10-31T02:55:09;34.70;;;22.83;;
3755;SDS011;1893;52.526;13.360;2022-10-31T02:57:35;39.03;;;22.57;;
3755;SDS011;1893;52.526;13.360;2022-10-31T03:00:06;35.20;;;22.33;;
3755;SDS011;1893;52.526;13.360;2022-10-31T03:07:57;32.30;;;21.97;;
3755;SDS011;1893;52.526;13.360;2022-10-31T03:10:41;32.73;;;20.53;;
3755;SDS011;1893;52.526;13.360;2022-10-31T03:13:20;33.83;;;21.87;;
3755;SDS011;1893;52.526;13.360;2022-10-31T03:15:56;35.70;;;23.23;;
3755;SDS011;1893;52.526;13.360;2022-10-31T03:18:30;31.63;;;22.20;;
3755;SDS011;1893;52.526;13.360;2022-10-31T03:21:01;31.60;;;21.23;;
3755;SDS011;1893;52.526;13.360;2022-10-31T03:23:32;32.67;;;22.70;;
3755;SDS011;1893;52.526;13.360;2022-10-31T03:26:00;33.03;;;21.53;;
3755;SDS011;1893;52.526;13.360;2022-10-31T03:28:33;35.97;;;21.63;;
3755;SDS011;1893;52.526;13.360;2022-10-31T03:31:02;29.70;;;22.70;;
3755;SDS011;1893;52.526;13.360;2022-10-31T03:33:30;33.50;;;22.17;;
3755;SDS011;1893;52.526;13.360;2022-10-31T03:35:59;37.67;;;21.40;;
3755;SDS011;1893;52.526;13.360;2022-10-31T03:38:27;33.57;;;21.30;;
3755;SDS011;1893;52.526;13.360;2022-10-31T03:40:54;30.43;;;20.90;;
3755;SDS011;1893;52.526;13.360;2022-10-31T03:43:25;32.40;;;20.43;;
3755;SDS011;1893;52.526;13.360;2022-10-31T03:45:53;34.10;;;21.10;;
3755;SDS011;1893;52.526;13.360;2022-10-31T03:48:19;32.77;;;22.57;;
3755;SDS011;1893;52.526;13.360;2022-10-31T03:53:34;29.97;;;21.03;;
3755;SDS011;1893;52.526;13.360;2022-10-31T03:56:12;33.53;;;21.83;;
3755;SDS011;1893;52.526;13.360;2022-10-31T03:58:48;30.23;;;20.53;;
3755;SDS011;1893;52.526;13.360;2022-10-31T04:01:41;33.03;;;20.90;;
3755;SDS011;1893;52.526;13.360;2022-10-31T04:04:12;28.07;;;20.10;;
3755;SDS011;1893;52.526;13.360;2022-10-31T04:06:38;31.97;;;19.70;;
3755;SDS011;1893;52.526;13.360;2022-10-31T04:09:07;32.97;;;22.30;;
3755;SDS011;1893;52.526;13.360;2022-10-31T04:11:35;29.50;;;20.20;;
3755;SDS011;1893;52.526;13.360;2022-10-31T04:14:04;31.77;;;21.30;;
3755;SDS011;1893;52.526;13.360;2022-10-31T04:16:31;34.00;;;19.77;;
3755;SDS011;1893;52.526;13.360;2022-10-31T04:18:57;39.30;;;21.97;;
3755;SDS011;1893;52.526;13.360;2022-10-31T04:21:26;26.10;;;18.50;;
3755;SDS011;1893;52.526;13.360;2022-10-31T04:23:54;30.47;;;19.70;;
3755;SDS011;1893;52.526;13.360;2022-10-31T04:26:20;30.10;;;18.90;;
3755;SDS011;1893;52.526;13.360;2022-10-31T04:28:46;34.00;;;19.80;;
3755;SDS011;1893;52.526;13.360;2022-10-31T04:31:11;37.20;;;19.33;;
3755;SDS011;1893;52.526;13.360;2022-10-31T04:33:37;27.17;;;19.30;;
3755;SDS011;1893;52.526;13.360;2022-10-31T04:36:03;30.77;;;20.37;;
3755;SDS011;1893;52.526;13.360;2022-10-31T04:38:32;35.30;;;20.10;;
3755;SDS011;1893;52.526;13.360;2022-10-31T04:40:57;31.10;;;20.27;;
3755;SDS011;1893;52.526;13.360;2022-10-31T04:43:23;32.20;;;20.00;;
3755;SDS011;1893;52.526;13.360;2022-10-31T04:45:49;32.10;;;19.00;;
3755;SDS011;1893;52.526;13.360;2022-10-31T04:48:14;33.30;;;19.53;;
3755;SDS011;1893;52.526;13.360;2022-10-31T04:50:40;29.13;;;20.30;;
3755;SDS011;1893;52.526;13.360;2022-10-31T04:53:05;31.57;;;18.83;;
3755;SDS011;1893;52.526;13.360;2022-10-31T04:55:31;32.20;;;19.27;;
3755;SDS011;1893;52.526;13.360;2022-10-31T04:57:57;29.87;;;21.13;;
3755;SDS011;1893;52.526;13.360;2022-10-31T05:00:22;36.37;;;20.93;;
3755;SDS011;1893;52.526;13.360;2022-10-31T05:05:15;29.23;;;18.23;;
3755;SDS011;1893;52.526;13.360;2022-10-31T05:07:43;35.83;;;20.13;;
3755;SDS011;1893;52.526;13.360;2022-10-31T05:10:11;26.23;;;19.50;;
3755;SDS011;1893;52.526;13.360;2022-10-31T05:12:45;28.90;;;20.47;;
3755;SDS011;1893;52.526;13.360;2022-10-31T05:15:12;29.37;;;19.77;;
3755;SDS011;1893;52.526;13.360;2022-10-31T05:17:38;27.53;;;19.43;;
3755;SDS011;1893;52.526;13.360;2022-10-31T05:20:04;33.27;;;19.97;;
3755;SDS011;1893;52.526;13.360;2022-10-31T05:22:30;31.10;;;20.80;;
3755;SDS011;1893;52.526;13.360;2022-10-31T05:24:55;36.67;;;20.93;;
3755;SDS011;1893;52.526;13.360;2022-10-31T05:27:21;36.07;;;20.30;;
3755;SDS011;1893;52.526;13.360;2022-10-31T05:29:46;31.80;;;20.30;;
3755;SDS011;1893;52.526;13.360;2022-10-31T05:32:12;44.27;;;21.50;;
3755;SDS011;1893;52.526;13.360;2022-10-31T05:34:37;32.37;;;18.70;;
3755;SDS011;1893;52.526;13.360;2022-10-31T05:37:03;40.60;;;20.93;;
3755;SDS011;1893;52.526;13.360;2022-10-31T05:39:28;40.23;;;22.10;;
3755;SDS011;1893;52.526;13.360;2022-10-31T05:41:54;32.40;;;20.07;;
3755;SDS011;1893;52.526;13.360;2022-10-31T05:44:19;32.33;;;20.47;;
3755;SDS011;1893;52.526;13.360;2022-10-31T05:46:48;30.67;;;18.37;;
3755;SDS011;1893;52.526;13.360;2022-10-31T05:49:14;29.43;;;20.30;;
3755;SDS011;1893;52.526;13.360;2022-10-31T05:51:39;31.40;;;19.67;;
3755;SDS011;1893;52.526;13.360;2022-10-31T05:54:05;36.97;;;21.40;;
3755;SDS011;1893;52.526;13.360;2022-10-31T05:56:30;39.70;;;20.70;;
3755;SDS011;1893;52.526;13.360;2022-10-31T05:58:56;29.40;;;19.57;;
3755;SDS011;1893;52.526;13.360;2022-10-31T06:01:21;29.63;;;19.77;;
3755;SDS011;1893;52.526;13.360;2022-10-31T06:03:47;34.17;;;19.40;;
3755;SDS011;1893;52.526;13.360;2022-10-31T06:06:12;30.63;;;20.90;;
3755;SDS011;1893;52.526;13.360;2022-10-31T06:08:38;29.43;;;19.97;;
3755;SDS011;1893;52.526;13.360;2022-10-31T06:11:03;37.00;;;21.90;;
3755;SDS011;1893;52.526;13.360;2022-10-31T06:13:29;38.10;;;22.27;;
3755;SDS011;1893;52.526;13.360;2022-10-31T06:15:55;34.53;;;20.07;;
3755;SDS011;1893;52.526;13.360;2022-10-31T06:18:20;35.57;;;21.70;;
3755;SDS011;1893;52.526;13.360;2022-10-31T06:20:46;35.10;;;20.20;;
3755;SDS011;1893;52.526;13.360;2022-10-31T06:23:11;37.60;;;21.57;;
3755;SDS011;1893;52.526;13.360;2022-10-31T06:25:37;32.47;;;21.47;;
3755;SDS011;1893;52.526;13.360;2022-10-31T06:28:02;31.47;;;20.07;;
3755;SDS011;1893;52.526;13.360;2022-10-31T06:30:28;32.37;;;20.70;;
3755;SDS011;1893;52.526;13.360;2022-10-31T06:32:53;32.63;;;19.20;;
3755;SDS011;1893;52.526;13.360;2022-10-31T06:35:19;33.80;;;20.43;;
3755;SDS011;1893;52.526;13.360;2022-10-31T06:37:52;32.63;;;21.10;;
3755;SDS011;1893;52.526;13.360;2022-10-31T06:40:17;29.70;;;20.03;;
3755;SDS011;1893;52.526;13.360;2022-10-31T06:42:43;35.33;;;20.13;;
3755;SDS011;1893;52.526;13.360;2022-10-31T06:45:09;30.13;;;21.17;;
3755;SDS011;1893;52.526;13.360;2022-10-31T06:47:34;29.50;;;19.60;;
3755;SDS011;1893;52.526;13.360;2022-10-31T06:50:00;37.80;;;19.07;;
3755;SDS011;1893;52.526;13.360;2022-10-31T06:52:25;34.80;;;19.00;;
3755;SDS011;1893;52.526;13.360;2022-10-31T06:54:51;31.73;;;17.70;;
3755;SDS011;1893;52.526;13.360;2022-10-31T06:57:16;30.87;;;18.13;;
3755;SDS011;1893;52.526;13.360;2022-10-31T06:59:42;22.50;;;17.30;;
3755;SDS011;1893;52.526;13.360;2022-10-31T07:02:09;46.77;;;25.73;;
3755;SDS011;1893;52.526;13.360;2022-10-31T07:04:36;36.37;;;20.50;;
3755;SDS011;1893;52.526;13.360;2022-10-31T07:07:02;35.00;;;19.37;;
3755;SDS011;1893;52.526;13.360;2022-10-31T07:09:28;27.67;;;18.57;;
3755;SDS011;1893;52.526;13.360;2022-10-31T07:11:53;33.57;;;19.43;;
3755;SDS011;1893;52.526;13.360;2022-10-31T07:14:19;34.53;;;18.93;;
3755;SDS011;1893;52.526;13.360;2022-10-31T07:16:48;34.63;;;18.57;;
3755;SDS011;1893;52.526;13.360;2022-10-31T07:19:15;25.70;;;15.97;;
3755;SDS011;1893;52.526;13.360;2022-10-31T07:21:40;27.83;;;17.10;;
3755;SDS011;1893;52.526;13.360;2022-10-31T07:24:06;29.13;;;18.17;;
3755;SDS011;1893;52.526;13.360;2022-10-31T07:26:31;27.73;;;17.70;;
3755;SDS011;1893;52.526;13.360;2022-10-31T07:28:57;38.80;;;20.97;;
3755;SDS011;1893;52.526;13.360;2022-10-31T07:31:23;26.43;;;16.43;;
3755;SDS011;1893;52.526;13.360;2022-10-31T07:33:49;34.53;;;16.60;;
3755;SDS011;1893;52.526;13.360;2022-10-31T07:36:15;26.13;;;17.47;;
3755;SDS011;1893;52.526;13.360;2022-10-31T07:38:41;27.67;;;17.00;;
3755;SDS011;1893;52.526;13.360;2022-10-31T07:41:06;27.17;;;16.33;;
3755;SDS011;1893;52.526;13.360;2022-10-31T07:43:32;34.33;;;18.40;;
3755;SDS011;1893;52.526;13.360;2022-10-31T07:45:57;25.60;;;17.97;;
3755;SDS011;1893;52.526;13.360;2022-10-31T07:48:23;29.30;;;18.17;;
3755;SDS011;1893;52.526;13.360;2022-10-31T07:50:49;29.17;;;17.70;;
3755;SDS011;1893;52.526;13.360;2022-10-31T07:53:14;28.97;;;17.27;;
3755;SDS011;1893;52.526;13.360;2022-10-31T07:55:40;27.70;;;18.00;;
3755;SDS011;1893;52.526;13.360;2022-10-31T07:58:08;36.20;;;18.20;;
3755;SDS011;1893;52.526;13.360;2022-10-31T08:00:38;31.53;;;19.47;;
3755;SDS011;1893;52.526;13.360;2022-10-31T08:03:06;31.00;;;19.73;;
3755;SDS011;1893;52.526;13.360;2022-10-31T08:05:33;26.63;;;18.40;;
3755;SDS011;1893;52.526;13.360;2022-10-31T08:07:59;28.67;;;18.33;;
3755;SDS011;1893;52.526;13.360;2022-10-31T08:10:26;32.83;;;19.40;;
3755;SDS011;1893;52.526;13.360;2022-10-31T08:12:55;34.93;;;20.77;;
3755;SDS011;1893;52.526;13.360;2022-10-31T08:15:22;32.70;;;19.80;;
3755;SDS011;1893;52.526;13.360;2022-10-31T08:17:48;32.80;;;20.77;;
3755;SDS011;1893;52.526;13.360;2022-10-31T08:20:14;32.27;;;21.33;;
3755;SDS011;1893;52.526;13.360;2022-10-31T08:22:39;36.30;;;20.40;;
3755;SDS011;1893;52.526;13.360;2022-10-31T08:25:05;28.70;;;19.50;;
3755;SDS011;1893;52.526;13.360;2022-10-31T08:27:30;30.40;;;20.67;;
3755;SDS011;1893;52.526;13.360;2022-10-31T08:29:56;25.83;;;19.43;;
3755;SDS011;1893;52.526;13.360;2022-10-31T08:32:21;27.70;;;19.27;;
3755;SDS011;1893;52.526;13.360;2022-10-31T08:34:47;31.60;;;20.23;;
3755;SDS011;1893;52.526;13.360;2022-10-31T08:37:13;26.40;;;19.70;;
3755;SDS011;1893;52.526;13.360;2022-10-31T08:39:43;37.67;;;20.13;;
3755;SDS011;1893;52.526;13.360;2022-10-31T08:42:09;34.57;;;20.37;;
3755;SDS011;1893;52.526;13.360;2022-10-31T08:44:34;31.10;;;19.50;;
3755;SDS011;1893;52.526;13.360;2022-10-31T08:47:00;44.37;;;22.57;;
3755;SDS011;1893;52.526;13.360;2022-10-31T08:49:25;27.10;;;19.80;;
3755;SDS011;1893;52.526;13.360;2022-10-31T08:51:51;33.73;;;20.07;;
3755;SDS011;1893;52.526;13.360;2022-10-31T08:54:17;32.77;;;21.80;;
3755;SDS011;1893;52.526;13.360;2022-10-31T08:56:42;36.77;;;21.13;;
3755;SDS011;1893;52.526;13.360;2022-10-31T08:59:08;31.90;;;19.20;;
3755;SDS011;1893;52.526;13.360;2022-10-31T09:01:33;34.33;;;22.10;;
3755;SDS011;1893;52.526;13.360;2022-10-31T09:03:59;35.83;;;21.60;;
3755;SDS011;1893;52.526;13.360;2022-10-31T09:06:24;28.30;;;19.60;;
3755;SDS011;1893;52.526;13.360;2022-10-31T09:08:50;27.30;;;18.93;;
3755;SDS011;1893;52.526;13.360;2022-10-31T09:11:15;26.30;;;19.23;;
3755;SDS011;1893;52.526;13.360;2022-10-31T09:13:41;28.30;;;19.90;;
3755;SDS011;1893;52.526;13.360;2022-10-31T09:16:06;28.70;;;20.40;;
3755;SDS011;1893;52.526;13.360;2022-10-31T09:18:32;32.33;;;20.40;;
3755;SDS011;1893;52.526;13.360;2022-10-31T09:20:58;28.17;;;19.87;;
3755;SDS011;1893;52.526;13.360;2022-10-31T09:23:24;27.63;;;20.33;;
3755;SDS011;1893;52.526;13.360;2022-10-31T09:25:51;34.77;;;21.53;;
3755;SDS011;1893;52.526;13.360;2022-10-31T09:28:19;35.47;;;20.53;;
3755;SDS011;1893;52.526;13.360;2022-10-31T09:30:47;28.80;;;20.50;;
3755;SDS011;1893;52.526;13.360;2022-10-31T09:33:14;27.87;;;19.60;;
3755;SDS011;1893;52.526;13.360;2022-10-31T09:35:40;28.40;;;20.70;;
3755;SDS011;1893;52.526;13.360;2022-10-31T09:38:08;38.27;;;19.93;;
3755;SDS011;1893;52.526;13.360;2022-10-31T09:40:37;26.83;;;19.20;;
3755;SDS011;1893;52.526;13.360;2022-10-31T09:43:22;35.30;;;20.33;;
3755;SDS011;1893;52.526;13.360;2022-10-31T09:48:31;36.57;;;22.27;;
3755;SDS011;1893;52.526;13.360;2022-10-31T09:51:23;34.70;;;21.80;;
3755;SDS011;1893;52.526;13.360;2022-10-31T09:53:56;29.07;;;20.97;;
3755;SDS011;1893;52.526;13.360;2022-10-31T09:56:30;37.90;;;21.30;;
3755;SDS011;1893;52.526;13.360;2022-10-31T09:58:58;26.80;;;19.13;;
3755;SDS011;1893;52.526;13.360;2022-10-31T10:04:38;32.10;;;20.10;;
3755;SDS011;1893;52.526;13.360;2022-10-31T10:10:12;29.50;;;20.40;;
3755;SDS011;1893;52.526;13.360;2022-10-31T10:12:48;38.93;;;23.20;;
3755;SDS011;1893;52.526;13.360;2022-10-31T10:25:58;27.77;;;20.20;;
3755;SDS011;1893;52.526;13.360;2022-10-31T10:28:33;28.67;;;22.80;;
3755;SDS011;1893;52.526;13.360;2022-10-31T10:31:07;34.50;;;22.33;;
3755;SDS011;1893;52.526;13.360;2022-10-31T10:33:47;28.03;;;20.80;;
3755;SDS011;1893;52.526;13.360;2022-10-31T10:36:28;30.10;;;22.33;;
3755;SDS011;1893;52.526;13.360;2022-10-31T10:39:09;30.43;;;21.97;;
3755;SDS011;1893;52.526;13.360;2022-10-31T10:41:44;31.40;;;23.30;;
3755;SDS011;1893;52.526;13.360;2022-10-31T10:44:32;31.70;;;20.40;;
3755;SDS011;1893;52.526;13.360;2022-10-31T10:47:17;34.90;;;23.00;;
3755;SDS011;1893;52.526;13.360;2022-10-31T10:50:02;29.90;;;22.40;;
3755;SDS011;1893;52.526;13.360;2022-10-31T10:53:00;33.73;;;23.33;;
3755;SDS011;1893;52.526;13.360;2022-10-31T10:55:36;32.00;;;22.37;;
3755;SDS011;1893;52.526;13.360;2022-10-31T10:58:08;31.40;;;24.70;;
3755;SDS011;1893;52.526;13.360;2022-10-31T11:00:36;46.23;;;22.90;;
3755;SDS011;1893;52.526;13.360;2022-10-31T11:03:07;34.70;;;23.43;;
3755;SDS011;1893;52.526;13.360;2022-10-31T11:08:05;29.83;;;22.07;;
3755;SDS011;1893;52.526;13.360;2022-10-31T11:10:31;32.53;;;23.80;;
3755;SDS011;1893;52.526;13.360;2022-10-31T11:13:03;28.43;;;21.60;;
3755;SDS011;1893;52.526;13.360;2022-10-31T11:15:34;34.60;;;20.43;;
3755;SDS011;1893;52.526;13.360;2022-10-31T11:18:22;27.37;;;21.40;;
3755;SDS011;1893;52.526;13.360;2022-10-31T11:20:57;29.87;;;22.83;;
3755;SDS011;1893;52.526;13.360;2022-10-31T11:23:25;28.53;;;22.23;;
3755;SDS011;1893;52.526;13.360;2022-10-31T11:26:02;37.50;;;22.23;;
3755;SDS011;1893;52.526;13.360;2022-10-31T11:28:31;36.90;;;22.13;;
3755;SDS011;1893;52.526;13.360;2022-10-31T11:31:00;34.40;;;23.13;;
3755;SDS011;1893;52.526;13.360;2022-10-31T11:33:35;33.63;;;25.17;;
3755;SDS011;1893;52.526;13.360;2022-10-31T11:39:04;40.33;;;22.27;;
3755;SDS011;1893;52.526;13.360;2022-10-31T11:41:37;31.60;;;23.83;;
3755;SDS011;1893;52.526;13.360;2022-10-31T11:44:04;35.00;;;23.00;;
3755;SDS011;1893;52.526;13.360;2022-10-31T11:46:42;32.90;;;23.00;;
3755;SDS011;1893;52.526;13.360;2022-10-31T11:49:20;28.40;;;20.47;;
3755;SDS011;1893;52.526;13.360;2022-10-31T11:51:55;31.37;;;21.70;;
3755;SDS011;1893;52.526;13.360;2022-10-31T11:54:25;34.53;;;22.73;;
3755;SDS011;1893;52.526;13.360;2022-10-31T11:57:03;31.23;;;21.57;;
3755;SDS011;1893;52.526;13.360;2022-10-31T11:59:30;35.17;;;22.27;;
3755;SDS011;1893;52.526;13.360;2022-10-31T12:01:57;32.93;;;22.13;;
3755;SDS011;1893;52.526;13.360;2022-10-31T12:04:46;30.87;;;22.07;;
3755;SDS011;1893;52.526;13.360;2022-10-31T12:07:13;33.50;;;25.00;;
3755;SDS011;1893;52.526;13.360;2022-10-31T12:09:39;31.10;;;24.47;;
3755;SDS011;1893;52.526;13.360;2022-10-31T12:12:11;30.07;;;22.80;;
3755;SDS011;1893;52.526;13.360;2022-10-31T12:18:10;32.63;;;22.40;;
3755;SDS011;1893;52.526;13.360;2022-10-31T12:20:59;28.70;;;22.67;;
3755;SDS011;1893;52.526;13.360;2022-10-31T12:23:47;33.10;;;22.70;;
3755;SDS011;1893;52.526;13.360;2022-10-31T12:26:34;28.83;;;22.77;;
3755;SDS011;1893;52.526;13.360;2022-10-31T12:29:10;30.80;;;21.47;;
3755;SDS011;1893;52.526;13.360;2022-10-31T12:40:26;35.23;;;22.50;;
3755;SDS011;1893;52.526;13.360;2022-10-31T12:43:15;31.57;;;22.70;;
3755;SDS011;1893;52.526;13.360;2022-10-31T12:45:59;30.40;;;22.73;;
3755;SDS011;1893;52.526;13.360;2022-10-31T12:48:34;31.33;;;23.03;;
3755;SDS011;1893;52.526;13.360;2022-10-31T12:51:22;34.63;;;22.47;;
3755;SDS011;1893;52.526;13.360;2022-10-31T12:54:28;37.00;;;23.93;;
3755;SDS011;1893;52.526;13.360;2022-10-31T13:00:07;28.63;;;21.80;;
3755;SDS011;1893;52.526;13.360;2022-10-31T13:02:42;37.23;;;25.30;;
3755;SDS011;1893;52.526;13.360;2022-10-31T13:07:55;40.97;;;29.77;;
3755;SDS011;1893;52.526;13.360;2022-10-31T13:12:58;44.63;;;25.50;;
3755;SDS011;1893;52.526;13.360;2022-10-31T13:15:31;42.60;;;27.23;;
3755;SDS011;1893;52.526;13.360;2022-10-31T13:18:04;42.43;;;25.10;;
3755;SDS011;1893;52.526;13.360;2022-10-31T13:20:44;34.03;;;26.37;;
3755;SDS011;1893;52.526;13.360;2022-10-31T13:25:49;47.13;;;30.23;;
3755;SDS011;1893;52.526;13.360;2022-10-31T13:28:23;36.87;;;27.83;;
3755;SDS011;1893;52.526;13.360;2022-10-31T13:30:58;52.80;;;29.10;;
3755;SDS011;1893;52.526;13.360;2022-10-31T13:33:30;34.30;;;24.13;;
3755;SDS011;1893;52.526;13.360;2022-10-31T13:38:59;33.70;;;24.20;;
3755;SDS011;1893;52.526;13.360;2022-10-31T13:41:47;37.10;;;24.47;;
3755;SDS011;1893;52.526;13.360;2022-10-31T13:44:26;42.90;;;26.07;;
3755;SDS011;1893;52.526;13.360;2022-10-31T13:46:53;44.23;;;27.83;;
3755;SDS011;1893;52.526;13.360;2022-10-31T13:54:51;38.30;;;27.80;;
3755;SDS011;1893;52.526;13.360;2022-10-31T13:57:31;48.80;;;30.23;;
3755;SDS011;1893;52.526;13.360;2022-10-31T14:00:01;48.03;;;30.30;;
3755;SDS011;1893;52.526;13.360;2022-10-31T14:02:31;45.50;;;30.47;;
3755;SDS011;1893;52.526;13.360;2022-10-31T14:05:01;44.00;;;29.63;;
3755;SDS011;1893;52.526;13.360;2022-10-31T14:07:30;53.80;;;32.13;;
3755;SDS011;1893;52.526;13.360;2022-10-31T14:12:31;45.03;;;31.17;;
3755;SDS011;1893;52.526;13.360;2022-10-31T14:18:01;54.90;;;33.90;;
3755;SDS011;1893;52.526;13.360;2022-10-31T14:20:41;57.13;;;34.77;;
3755;SDS011;1893;52.526;13.360;2022-10-31T14:28:48;60.43;;;34.43;;
3755;SDS011;1893;52.526;13.360;2022-10-31T14:31:27;53.10;;;33.57;;
3755;SDS011;1893;52.526;13.360;2022-10-31T14:34:01;57.37;;;34.60;;
3755;SDS011;1893;52.526;13.360;2022-10-31T14:36:51;60.40;;;35.83;;
3755;SDS011;1893;52.526;13.360;2022-10-31T14:44:54;66.47;;;37.70;;
3755;SDS011;1893;52.526;13.360;2022-10-31T14:52:53;67.90;;;40.37;;
3755;SDS011;1893;52.526;13.360;2022-10-31T14:55:21;68.53;;;40.40;;
3755;SDS011;1893;52.526;13.360;2022-10-31T14:58:06;61.77;;;39.43;;
3755;SDS011;1893;52.526;13.360;2022-10-31T15:00:33;68.50;;;38.20;;
3755;SDS011;1893;52.526;13.360;2022-10-31T15:03:14;68.87;;;37.80;;
3755;SDS011;1893;52.526;13.360;2022-10-31T15:05:49;63.93;;;39.90;;
3755;SDS011;1893;52.526;13.360;2022-10-31T15:11:15;63.33;;;38.90;;
3755;SDS011;1893;52.526;13.360;2022-10-31T15:13:52;71.57;;;42.47;;
3755;SDS011;1893;52.526;13.360;2022-10-31T15:16:21;83.60;;;43.57;;
3755;SDS011;1893;52.526;13.360;2022-10-31T15:21:23;73.23;;;41.13;;
3755;SDS011;1893;52.526;13.360;2022-10-31T15:23:51;83.83;;;44.10;;
3755;SDS011;1893;52.526;13.360;2022-10-31T15:26:19;86.27;;;44.63;;
3755;SDS011;1893;52.526;13.360;2022-10-31T15:28:56;91.73;;;45.60;;
3755;SDS011;1893;52.526;13.360;2022-10-31T15:31:36;90.67;;;47.80;;
3755;SDS011;1893;52.526;13.360;2022-10-31T15:34:06;81.23;;;44.23;;
3755;SDS011;1893;52.526;13.360;2022-10-31T15:36:41;88.20;;;46.13;;
3755;SDS011;1893;52.526;13.360;2022-10-31T15:39:09;89.07;;;46.70;;
3755;SDS011;1893;52.526;13.360;2022-10-31T15:41:54;90.67;;;48.00;;
3755;SDS011;1893;52.526;13.360;2022-10-31T15:44:25;97.43;;;45.80;;
3755;SDS011;1893;52.526;13.360;2022-10-31T15:46:55;87.60;;;48.00;;
3755;SDS011;1893;52.526;13.360;2022-10-31T15:49:36;89.23;;;48.47;;
3755;SDS011;1893;52.526;13.360;2022-10-31T15:52:04;98.10;;;46.97;;
3755;SDS011;1893;52.526;13.360;2022-10-31T15:54:36;99.47;;;48.43;;
3755;SDS011;1893;52.526;13.360;2022-10-31T15:57:12;98.40;;;47.70;;
3755;SDS011;1893;52.526;13.360;2022-10-31T15:59:38;88.00;;;46.37;;
3755;SDS011;1893;52.526;13.360;2022-10-31T16:02:10;95.37;;;51.10;;
3755;SDS011;1893;52.526;13.360;2022-10-31T16:04:37;91.70;;;46.10;;
3755;SDS011;1893;52.526;13.360;2022-10-31T16:07:14;96.77;;;44.90;;
3755;SDS011;1893;52.526;13.360;2022-10-31T16:09:49;90.73;;;46.50;;
3755;SDS011;1893;52.526;13.360;2022-10-31T16:12:19;85.90;;;46.50;;
3755;SDS011;1893;52.526;13.360;2022-10-31T16:14:46;107.93;;;49.97;;
3755;SDS011;1893;52.526;13.360;2022-10-31T16:17:13;95.90;;;48.43;;
3755;SDS011;1893;52.526;13.360;2022-10-31T16:22:18;121.70;;;50.37;;
3755;SDS011;1893;52.526;13.360;2022-10-31T16:25:04;104.23;;;50.83;;
3755;SDS011;1893;52.526;13.360;2022-10-31T16:27:39;88.93;;;46.70;;
3755;SDS011;1893;52.526;13.360;2022-10-31T16:30:27;99.50;;;51.10;;
3755;SDS011;1893;52.526;13.360;2022-10-31T16:33:19;92.63;;;48.17;;
3755;SDS011;1893;52.526;13.360;2022-10-31T16:35:47;121.03;;;53.63;;
3755;SDS011;1893;52.526;13.360;2022-10-31T16:38:13;98.20;;;49.10;;
3755;SDS011;1893;52.526;13.360;2022-10-31T16:40:39;96.77;;;49.40;;
3755;SDS011;1893;52.526;13.360;2022-10-31T16:43:05;101.87;;;47.70;;
3755;SDS011;1893;52.526;13.360;2022-10-31T16:45:36;104.73;;;52.87;;
3755;SDS011;1893;52.526;13.360;2022-10-31T16:48:10;103.73;;;52.10;;
3755;SDS011;1893;52.526;13.360;2022-10-31T16:50:44;96.43;;;50.73;;